Astoria, South Dakota
Current Conditions -  °F | °C
As of 1:33 PM on Friday 24 Oct 2014 (Local Time) from KCNB Reporting Station
Clear Clear  
Wind Chill: 71°   Ceiling: Unl
Heat Index: 71°   Visibility: 10mi
Dew Point: 40°   Wind: 9mph
Humidity: 32%   Direction: 290°WNW
Pressure: 29.87"   Gusts: NA
Location:  44.56°N, 96.55°W
Report Text: KCNB 241833Z AUTO 29008KT 10SM CLR 22/04 A2987 RMK AO2 T02180042
Loading
Personal Weather Stations






























Interactive Weather Map
Tropical Storm Tracking
New forecast layout! Learn more

10-Day Weather Forecast

Advertisements
Track Severe Weather on mobile